Terminal Aerodrome Forecast
Issued by NWS Wilmington, OH

Current Version | Previous Version | Graphics & Text | Print | Product List | Glossary On
Versions: 1 2 3 4 5 6 7 8 9 10 11 12 13 14 15 16
000
FTUS41 KILN 241725
TAFCMH
TAF
KCMH 241725Z 2418/2518 24006KT P6SM FEW060 SCT250
     FM250100 20004KT P6SM SCT250
     FM251100 18004KT P6SM BKN070
     FM251500 19007KT P6SM VCSH BKN050=

USA.gov is the U.S. government's official web portal to all federal, state and local government web resources and services.